Time;durP1;ratioP1;P1;durP2;ratioP2;P2;SDS_P1;SDS_P2;PMS_P1;PMS_P2;Temp;Humidity;BMP_temperature;BMP_pressure;BME280_temperature;BME280_humidity;BME280_pressure;Samples;Min_cycle;Max_cycle;Signal;HPM_P1;HPM_P2
2021/01/03 00:01:56;;;;;;;5.57;5.07;;;;;;;3.62;66.86;100433.91;5044964;28;20627;-84
2021/01/03 00:04:22;;;;;;;5.03;4.63;;;;;;;3.61;67.10;100436.47;5045308;28;20233;-84
2021/01/03 00:06:50;;;;;;;5.47;4.97;;;;;;;3.58;67.04;100425.25;5045427;28;20198;-83
2021/01/03 00:09:16;;;;;;;5.13;4.73;;;;;;;3.57;67.24;100436.47;5041890;28;20226;-84
2021/01/03 00:11:42;;;;;;;4.80;4.40;;;;;;;3.56;67.09;100423.53;5046290;28;20339;-83
2021/01/03 00:14:07;;;;;;;5.73;5.23;;;;;;;3.56;67.38;100423.53;5044504;28;20203;-83
2021/01/03 00:16:34;;;;;;;5.43;4.93;;;;;;;3.56;67.47;100429.53;5047521;28;20209;-83
2021/01/03 00:19:00;;;;;;;6.07;5.47;;;;;;;3.55;67.27;100426.97;5044998;28;20230;-84
2021/01/03 00:21:26;;;;;;;5.60;5.10;;;;;;;3.53;67.59;100431.25;5046616;28;20211;-83
2021/01/03 00:23:52;;;;;;;5.63;5.13;;;;;;;3.52;67.53;100425.22;5045588;28;20226;-84
2021/01/03 00:26:18;;;;;;;5.87;5.37;;;;;;;3.54;68.13;100427.81;5041395;28;20232;-84
2021/01/03 00:28:44;;;;;;;5.87;5.33;;;;;;;3.53;68.25;100424.38;5044824;28;20281;-82
2021/01/03 00:31:10;;;;;;;5.93;5.43;;;;;;;3.57;68.48;100430.44;5036342;28;20214;-83
2021/01/03 00:33:37;;;;;;;6.13;5.63;;;;;;;3.56;68.19;100428.69;5037914;28;20202;-82
2021/01/03 00:36:03;;;;;;;7.47;5.23;;;;;;;3.53;68.13;100429.53;5038300;28;20209;-83
2021/01/03 00:38:29;;;;;;;7.13;5.03;;;;;;;3.54;67.87;100427.81;5038608;28;20222;-84
2021/01/03 00:40:55;;;;;;;4.93;4.50;;;;;;;3.57;67.52;100431.28;5037788;28;20225;-83
2021/01/03 00:43:21;;;;;;;5.40;4.90;;;;;;;3.50;68.04;100426.06;5036037;28;20222;-83
2021/01/03 00:45:47;;;;;;;4.93;4.50;;;;;;;3.50;68.30;100426.91;5034407;28;20243;-83
2021/01/03 00:48:13;;;;;;;5.20;4.80;;;;;;;3.54;67.75;100426.09;5037067;28;20194;-83
2021/01/03 00:50:40;;;;;;;5.50;5.10;;;;;;;3.54;67.74;100428.66;5033808;28;20198;-83
2021/01/03 00:53:06;;;;;;;4.80;4.43;;;;;;;3.57;67.59;100426.13;5037215;28;20819;-83
2021/01/03 00:55:32;;;;;;;4.60;4.20;;;;;;;3.53;67.38;100432.13;5036924;28;20270;-84
2021/01/03 00:57:58;;;;;;;4.83;4.17;;;;;;;3.52;67.18;100427.78;5037236;28;20268;-83
2021/01/03 01:00:28;;;;;;;4.50;4.10;;;;;;;3.50;67.41;100429.50;5037751;28;20205;-83
2021/01/03 01:02:55;;;;;;;5.67;5.17;;;;;;;3.48;67.55;100422.59;5037615;28;20206;-83
2021/01/03 01:05:22;;;;;;;4.93;4.53;;;;;;;3.48;67.91;100425.19;5031134;28;20202;-83
2021/01/03 01:07:48;;;;;;;5.00;4.50;;;;;;;3.48;67.66;100426.03;5037562;28;20631;-83
2021/01/03 01:10:19;;;;;;;4.73;4.13;;;;;;;3.49;67.29;100425.19;5036911;28;20222;-83
2021/01/03 01:12:45;;;;;;;5.00;4.60;;;;;;;3.46;67.36;100420.00;5036641;28;20209;-82
2021/01/03 01:15:18;;;;;;;4.87;4.37;;;;;;;3.48;67.56;100426.03;5036755;28;20214;-83
2021/01/03 01:17:44;;;;;;;4.80;4.40;;;;;;;3.48;67.56;100420.03;5037498;28;20290;-82
2021/01/03 01:20:12;;;;;;;4.87;4.47;;;;;;;3.46;67.99;100427.75;5031253;28;20227;-83
2021/01/03 01:22:38;;;;;;;4.83;4.43;;;;;;;3.46;67.84;100435.47;5037756;28;20202;-82
2021/01/03 01:25:06;;;;;;;4.40;4.10;;;;;;;3.41;68.08;100434.59;5035576;28;20230;-83
2021/01/03 01:27:32;;;;;;;5.07;4.57;;;;;;;3.41;68.84;100432.00;5037597;28;20202;-83
2021/01/03 01:29:58;;;;;;;5.07;4.67;;;;;;;3.46;67.95;100432.91;5036961;28;20236;-83
2021/01/03 01:32:24;;;;;;;5.10;4.60;;;;;;;3.45;68.04;100438.03;5036661;28;20229;-82
2021/01/03 01:34:50;;;;;;;5.73;5.13;;;;;;;3.43;68.31;100432.88;5031528;28;20213;-81
2021/01/03 01:37:16;;;;;;;4.80;4.40;;;;;;;3.46;67.87;100437.19;5037135;28;20201;-83
2021/01/03 01:39:42;;;;;;;4.80;4.30;;;;;;;3.51;67.46;100432.97;5035628;28;20227;-83
2021/01/03 01:42:09;;;;;;;4.47;4.07;;;;;;;3.48;67.68;100431.19;5036293;28;20206;-83
2021/01/03 01:44:35;;;;;;;5.00;4.50;;;;;;;3.50;67.87;100433.78;5035863;28;20225;-83
2021/01/03 01:47:05;;;;;;;4.97;4.57;;;;;;;3.46;68.17;100427.75;5036547;28;20635;-82
2021/01/03 01:49:40;;;;;;;4.83;4.33;;;;;;;3.46;67.90;100427.75;5036615;28;20222;-83
2021/01/03 01:52:06;;;;;;;4.80;4.40;;;;;;;3.50;67.53;100432.06;5036432;28;20805;-84
2021/01/03 01:54:36;;;;;;;4.80;4.40;;;;;;;3.50;67.95;100434.66;5034666;28;20603;-83
2021/01/03 01:57:07;;;;;;;5.37;4.87;;;;;;;3.46;67.88;100434.63;5035842;28;20204;-83
2021/01/03 01:59:42;;;;;;;5.10;4.70;;;;;;;3.45;67.77;100432.88;5035806;28;20226;-81
2021/01/03 02:02:12;;;;;;;4.60;4.20;;;;;;;3.50;67.63;100434.66;5036625;28;20236;-83
2021/01/03 02:04:45;;;;;;;4.90;4.40;;;;;;;3.52;68.05;100430.38;5035309;28;20225;-83
2021/01/03 02:07:17;;;;;;;5.33;4.80;;;;;;;3.53;67.43;100419.22;5037013;28;20228;-83
2021/01/03 02:09:53;;;;;;;5.60;5.07;;;;;;;3.54;67.81;100423.50;5036238;28;20226;-81
2021/01/03 02:12:25;;;;;;;4.90;4.50;;;;;;;3.51;68.22;100423.50;5033932;28;20201;-84
2021/01/03 02:14:52;;;;;;;4.70;4.27;;;;;;;3.51;67.62;100410.59;5035985;28;20633;-83
2021/01/03 02:17:18;;;;;;;4.97;4.43;;;;;;;3.49;67.97;100407.13;5033315;28;20580;-82
2021/01/03 02:19:44;;;;;;;5.50;5.00;;;;;;;3.51;68.17;100408.00;5039609;28;20222;-83
2021/01/03 02:22:19;;;;;;;5.23;4.73;;;;;;;3.51;67.68;100399.41;5046653;28;20684;-83
2021/01/03 02:24:48;;;;;;;5.00;4.60;;;;;;;3.48;67.71;100399.38;5041944;28;20225;-83
2021/01/03 02:27:21;;;;;;;5.37;4.87;;;;;;;3.47;68.26;100401.09;5048038;28;20211;-83
2021/01/03 02:29:50;;;;;;;4.77;4.27;;;;;;;3.47;68.38;100405.38;5041046;28;20292;-83
2021/01/03 02:32:17;;;;;;;4.43;4.03;;;;;;;3.41;68.58;100395.88;5043392;28;20207;-83
2021/01/03 02:34:47;;;;;;;5.23;4.73;;;;;;;3.42;68.70;100400.19;5042961;28;20194;-83
2021/01/03 02:37:19;;;;;;;5.60;4.13;;;;;;;3.40;68.98;100395.84;5046582;28;20200;-83
2021/01/03 02:39:52;;;;;;;4.60;3.73;;;;;;;3.44;68.76;100398.47;5043019;28;20222;-82
2021/01/03 02:42:22;;;;;;;4.73;4.30;;;;;;;3.41;68.83;100395.00;5044431;28;20682;-83
2021/01/03 02:44:49;;;;;;;4.57;4.17;;;;;;;3.42;68.72;100399.31;5041044;28;20282;-83
2021/01/03 02:47:15;;;;;;;4.63;4.10;;;;;;;3.43;68.97;100399.34;5045607;28;20283;-83
2021/01/03 02:49:41;;;;;;;4.73;4.33;;;;;;;3.47;68.29;100403.69;5042272;28;20226;-82
2021/01/03 02:52:12;;;;;;;4.03;3.63;;;;;;;3.46;68.74;100407.09;5046290;28;20263;-82
2021/01/03 02:54:38;;;;;;;4.17;3.77;;;;;;;3.48;68.75;100404.53;5041172;28;20202;-83
2021/01/03 02:57:04;;;;;;;4.10;3.80;;;;;;;3.43;69.18;100403.63;5046432;28;20658;-81
2021/01/03 02:59:31;;;;;;;4.50;4.10;;;;;;;3.41;68.94;100398.47;5046623;28;20240;-82
2021/01/03 03:01:57;;;;;;;4.30;4.00;;;;;;;3.44;68.55;100397.63;5049268;28;20206;-83
2021/01/03 03:04:22;;;;;;;4.20;3.80;;;;;;;3.47;68.53;100405.38;5045993;28;20243;-83
2021/01/03 03:06:48;;;;;;;3.90;3.50;;;;;;;3.44;68.94;100398.47;5048225;28;20244;-83
2021/01/03 03:09:14;;;;;;;4.70;4.30;;;;;;;3.43;69.09;100395.88;5046217;28;20641;-83
2021/01/03 03:11:45;;;;;;;4.20;3.80;;;;;;;3.41;68.88;100395.88;5047558;28;20207;-82
2021/01/03 03:14:11;;;;;;;4.97;4.57;;;;;;;3.42;68.68;100400.19;5047630;28;20224;-83
2021/01/03 03:16:37;;;;;;;4.27;3.83;;;;;;;3.41;69.42;100400.16;5047976;28;20201;-82
2021/01/03 03:19:04;;;;;;;4.40;4.00;;;;;;;3.42;69.02;100396.75;5045341;28;20244;-83
2021/01/03 03:21:29;;;;;;;4.67;4.27;;;;;;;3.43;69.04;100398.44;5048888;28;20327;-83
2021/01/03 03:23:55;;;;;;;5.00;4.50;;;;;;;3.41;69.06;100398.47;5035997;28;20258;-83
2021/01/03 03:26:21;;;;;;;4.90;4.33;;;;;;;3.39;69.17;100402.75;5038193;28;20200;-84
2021/01/03 03:28:47;;;;;;;4.87;4.33;;;;;;;3.37;69.78;100400.16;5037386;28;20237;-83
2021/01/03 03:31:13;;;;;;;6.20;4.63;;;;;;;3.36;69.46;100387.22;5038452;28;20301;-84
2021/01/03 03:33:40;;;;;;;4.60;4.20;;;;;;;3.35;69.50;100395.78;5037933;28;20206;-82
2021/01/03 03:36:06;;;;;;;5.00;4.33;;;;;;;3.36;69.89;100385.50;5037677;28;20566;-83
2021/01/03 03:38:32;;;;;;;4.90;4.43;;;;;;;3.36;70.00;100390.66;5035331;28;20241;-83
2021/01/03 03:40:57;;;;;;;4.77;4.37;;;;;;;3.35;69.71;100382.91;5037460;28;20202;-82
2021/01/03 03:43:23;;;;;;;6.33;4.77;;;;;;;3.34;69.91;100386.34;5037459;28;20297;-83
2021/01/03 03:45:49;;;;;;;4.70;4.30;;;;;;;3.33;70.09;100387.19;5037803;28;20206;-83
2021/01/03 03:48:15;;;;;;;4.90;4.50;;;;;;;3.33;70.20;100388.06;5037190;28;20689;-82
2021/01/03 03:50:42;;;;;;;5.77;5.27;;;;;;;3.33;70.06;100385.50;5038171;28;20264;-83
2021/01/03 03:53:08;;;;;;;5.23;4.73;;;;;;;3.36;70.11;100388.06;5036429;28;20209;-83
2021/01/03 03:55:34;;;;;;;5.70;5.20;;;;;;;3.35;70.69;100393.22;5036977;28;20292;-81
2021/01/03 03:57:59;;;;;;;5.47;4.93;;;;;;;3.36;70.65;100387.22;5037033;28;20198;-84
2021/01/03 04:00:25;;;;;;;6.30;5.37;;;;;;;3.37;70.46;100388.97;5037401;28;20206;-83
2021/01/03 04:02:52;;;;;;;5.93;5.30;;;;;;;3.38;70.76;100393.25;5037956;28;20202;-83
2021/01/03 04:05:21;;;;;;;5.60;5.10;;;;;;;3.37;70.98;100388.97;5032145;28;20257;-82
2021/01/03 04:07:48;;;;;;;5.67;5.17;;;;;;;3.37;69.99;100389.81;5037906;28;20202;-81
2021/01/03 04:10:14;;;;;;;5.63;5.13;;;;;;;3.36;70.49;100380.34;5031498;28;20223;-82
2021/01/03 04:12:40;;;;;;;7.67;5.90;;;;;;;3.36;70.93;100382.06;5037123;28;20577;-81
2021/01/03 04:15:08;;;;;;;5.47;4.80;;;;;;;3.33;70.75;100389.75;5036962;28;20265;-83
2021/01/03 04:17:34;;;;;;;5.80;5.30;;;;;;;3.25;71.45;100384.56;5038145;28;20190;-81
2021/01/03 04:20:00;;;;;;;5.00;4.60;;;;;;;3.28;70.41;100386.28;5037071;28;20611;-83
2021/01/03 04:22:28;;;;;;;5.50;5.00;;;;;;;3.23;71.10;100382.78;5038533;28;20256;-83
2021/01/03 04:24:55;;;;;;;6.00;5.50;;;;;;;3.18;71.28;100393.06;5037246;28;20229;-83
2021/01/03 04:27:21;;;;;;;6.37;5.77;;;;;;;3.18;71.85;100391.34;5037355;28;20205;-83
2021/01/03 04:29:47;;;;;;;5.67;5.17;;;;;;;3.16;71.63;100394.75;5031669;28;20241;-83
2021/01/03 04:32:13;;;;;;;5.30;4.90;;;;;;;3.14;71.85;100387.00;5037352;28;20202;-81
2021/01/03 04:34:42;;;;;;;5.30;4.80;;;;;;;3.20;72.01;100393.94;5036892;28;20274;-83
2021/01/03 04:37:08;;;;;;;5.93;5.37;;;;;;;3.25;71.19;100389.72;5037272;28;20236;-83
2021/01/03 04:39:35;;;;;;;5.53;5.03;;;;;;;3.26;71.31;100386.25;5036691;28;20222;-83
2021/01/03 04:42:04;;;;;;;6.10;5.53;;;;;;;3.27;70.87;100395.75;5037165;28;20621;-83
2021/01/03 04:44:36;;;;;;;5.30;4.90;;;;;;;3.26;71.39;100394.00;5036237;28;20218;-83
2021/01/03 04:47:05;;;;;;;5.93;5.33;;;;;;;3.25;71.26;100401.72;5037443;28;20202;-82
2021/01/03 04:49:39;;;;;;;7.20;5.23;;;;;;;3.27;72.00;100398.31;5036376;28;20233;-83
2021/01/03 04:52:32;;;;;;;6.77;5.97;;;;;;;3.23;71.75;100400.84;5036880;28;20205;-82
2021/01/03 04:55:12;;;;;;;6.70;6.10;;;;;;;3.28;71.49;100394.88;5001125;28;20718;-81
2021/01/03 04:57:47;;;;;;;6.27;5.67;;;;;;;3.24;72.27;100398.28;5036401;28;20203;-83
2021/01/03 05:00:16;;;;;;;6.10;5.50;;;;;;;3.24;72.17;100398.28;5033543;28;20226;-83
2021/01/03 05:03:30;;;;;;;6.37;5.77;;;;;;;3.28;71.76;100392.31;5036487;28;20679;-82
2021/01/03 05:06:01;;;;;;;6.13;5.63;;;;;;;3.29;71.14;100399.22;5034001;28;20202;-82
2021/01/03 05:08:35;;;;;;;6.00;5.40;;;;;;;3.29;71.73;100393.16;5036119;28;20234;-82
2021/01/03 05:11:06;;;;;;;6.47;5.87;;;;;;;3.28;71.29;100396.59;5036343;28;20202;-82
2021/01/03 05:14:02;;;;;;;6.37;5.43;;;;;;;3.28;71.25;100394.88;5035600;28;20195;-83
2021/01/03 05:16:28;;;;;;;5.90;5.30;;;;;;;3.23;71.53;100396.56;5027276;28;20202;-83
2021/01/03 05:18:54;;;;;;;6.10;5.60;;;;;;;3.21;71.86;100399.97;5034759;28;20239;-82
2021/01/03 05:21:20;;;;;;;6.60;5.97;;;;;;;3.21;71.89;100392.22;5036101;28;20202;-83
2021/01/03 05:24:07;;;;;;;6.43;5.80;;;;;;;3.16;72.52;100395.63;5035718;28;20222;-81
2021/01/03 05:26:34;;;;;;;6.50;5.90;;;;;;;3.18;72.38;100401.66;5026269;28;20205;-83
2021/01/03 05:29:01;;;;;;;6.13;5.43;;;;;;;3.17;72.13;100392.22;5035362;28;20222;-82
2021/01/03 05:31:29;;;;;;;6.60;5.97;;;;;;;3.15;72.15;100395.59;5035378;28;20696;-82
2021/01/03 05:33:57;;;;;;;8.03;6.50;;;;;;;3.18;72.60;100398.22;5035797;28;20202;-83
2021/01/03 05:36:36;;;;;;;6.87;5.90;;;;;;;3.16;72.75;100399.91;5035957;28;20198;-83
2021/01/03 05:39:09;;;;;;;8.20;6.80;;;;;;;3.14;73.08;100396.47;5035732;28;20222;-82
2021/01/03 05:41:56;;;;;;;8.10;6.60;;;;;;;3.14;72.58;100396.47;5036218;28;20587;-83
2021/01/03 05:44:26;;;;;;;6.43;5.83;;;;;;;3.15;72.80;100388.75;5035481;28;20727;-81
2021/01/03 05:47:01;;;;;;;7.27;6.60;;;;;;;3.15;72.43;100391.31;5036316;28;20218;-81
2021/01/03 05:49:28;;;;;;;7.47;6.77;;;;;;;3.16;72.55;100393.03;5035387;28;20279;-81
2021/01/03 05:52:03;;;;;;;7.37;6.60;;;;;;;3.12;72.97;100391.28;5036082;28;20213;-83
2021/01/03 05:54:33;;;;;;;10.17;6.73;;;;;;;3.18;72.50;100400.81;5035727;28;20198;-82
2021/01/03 05:57:05;;;;;;;8.00;6.73;;;;;;;3.16;73.10;100398.19;5033522;28;20199;-82
2021/01/03 05:59:37;;;;;;;7.20;6.57;;;;;;;3.16;72.68;100400.78;5032909;28;20225;-82
2021/01/03 06:02:11;;;;;;;7.33;6.23;;;;;;;3.17;72.85;100406.78;5034602;28;20624;-82
2021/01/03 06:04:38;;;;;;;6.97;6.27;;;;;;;3.19;73.15;100399.94;5031747;28;20226;-82
2021/01/03 06:07:17;;;;;;;7.10;6.40;;;;;;;3.23;72.81;100406.88;5035754;28;20197;-83
2021/01/03 06:09:42;;;;;;;8.47;6.90;;;;;;;3.20;72.78;100409.41;5034457;28;20218;-83
2021/01/03 06:12:15;;;;;;;7.30;6.57;;;;;;;3.20;73.08;100412.00;5035704;28;20711;-83
2021/01/03 06:14:42;;;;;;;7.90;7.10;;;;;;;3.17;73.19;100410.25;5035350;28;20248;-81
2021/01/03 06:17:18;;;;;;;7.73;6.93;;;;;;;3.16;73.00;100410.25;5035372;28;20210;-83
2021/01/03 06:19:48;;;;;;;6.97;6.27;;;;;;;3.14;73.23;100411.94;5029631;28;20366;-83
2021/01/03 06:22:34;;;;;;;8.10;7.30;;;;;;;3.08;73.71;100409.28;5035647;28;20667;-83
2021/01/03 06:25:03;;;;;;;7.30;6.53;;;;;;;3.11;73.48;100411.88;5034633;28;20706;-83
2021/01/03 06:27:32;;;;;;;8.27;7.47;;;;;;;3.13;73.05;100416.25;5028416;28;20245;-83
2021/01/03 06:30:04;;;;;;;11.33;7.03;;;;;;;3.13;73.02;100413.66;5036769;28;20234;-82
2021/01/03 06:32:50;;;;;;;8.27;7.30;;;;;;;3.13;73.44;100405.91;5040121;28;20198;-83
2021/01/03 06:35:28;;;;;;;8.27;7.47;;;;;;;3.12;73.26;100413.63;5038981;28;20807;-83
2021/01/03 06:38:03;;;;;;;7.47;6.77;;;;;;;3.09;73.12;100409.31;5039921;28;20206;-83
2021/01/03 06:40:32;;;;;;;8.43;7.63;;;;;;;3.07;72.79;100413.59;5038853;28;20201;-82
2021/01/03 06:43:18;;;;;;;7.57;6.77;;;;;;;3.07;73.49;100405.84;5039500;28;20198;-82
2021/01/03 06:46:19;;;;;;;7.70;6.87;;;;;;;3.05;73.09;100412.69;5039100;28;20687;-83
2021/01/03 06:49:04;;;;;;;7.10;6.40;;;;;;;3.06;73.76;100414.44;5038942;28;20319;-81
2021/01/03 06:51:44;;;;;;;8.13;6.87;;;;;;;3.06;73.79;100408.41;5036493;28;20202;-83
2021/01/03 06:54:33;;;;;;;7.90;6.87;;;;;;;3.07;72.98;100412.69;5037141;28;20198;-80
2021/01/03 06:57:17;;;;;;;7.27;6.53;;;;;;;3.07;73.54;100412.69;5036837;28;20673;-83
2021/01/03 07:00:04;;;;;;;7.93;7.23;;;;;;;3.07;73.60;100405.84;5039077;28;20621;-81
2021/01/03 07:02:32;;;;;;;8.43;7.63;;;;;;;3.03;73.55;100413.53;5036125;28;20198;-83
2021/01/03 07:05:05;;;;;;;7.60;6.73;;;;;;;3.06;73.18;100411.84;5038520;28;20225;-83
2021/01/03 07:07:32;;;;;;;7.90;6.80;;;;;;;3.00;74.00;100409.19;5039649;28;20199;-85
2021/01/03 07:10:01;;;;;;;9.60;7.10;;;;;;;3.04;73.57;100413.53;5038608;28;20301;-83
2021/01/03 07:12:37;;;;;;;7.13;6.43;;;;;;;3.07;73.71;100405.84;5039148;28;20331;-83
2021/01/03 07:15:09;;;;;;;7.73;6.97;;;;;;;3.13;72.96;100411.09;5037932;28;20209;-83
2021/01/03 07:17:52;;;;;;;7.60;6.80;;;;;;;3.12;73.13;100404.19;5039977;28;20206;-82
2021/01/03 07:20:24;;;;;;;7.17;6.50;;;;;;;3.07;73.00;100403.28;5038657;28;20232;-83
2021/01/03 07:23:02;;;;;;;7.87;7.13;;;;;;;3.09;73.55;100404.16;5039234;28;20210;-82
2021/01/03 07:25:42;;;;;;;8.70;7.90;;;;;;;3.08;73.39;100410.16;5038735;28;20221;-83
2021/01/03 07:28:14;;;;;;;9.07;8.27;;;;;;;3.07;73.16;100405.84;5038046;28;20214;-82
2021/01/03 07:30:58;;;;;;;9.43;8.53;;;;;;;3.03;73.43;100405.78;5034697;28;20210;-83
2021/01/03 07:33:36;;;;;;;9.00;7.53;;;;;;;3.00;73.61;100405.78;5031736;28;20280;-82
2021/01/03 07:36:20;;;;;;;8.73;7.37;;;;;;;2.99;74.13;100407.47;5038355;28;20202;-81
2021/01/03 07:39:05;;;;;;;8.53;7.73;;;;;;;3.02;73.59;100410.09;5038623;28;20229;-81
2021/01/03 07:41:31;;;;;;;9.20;7.90;;;;;;;3.03;73.30;100408.38;5032011;28;20195;-83
2021/01/03 07:44:01;;;;;;;8.60;7.80;;;;;;;3.02;73.44;100417.81;5038052;28;20244;-82
2021/01/03 07:46:49;;;;;;;9.70;7.50;;;;;;;3.03;73.59;100411.78;5038705;28;20260;-82
2021/01/03 07:49:47;;;;;;;9.17;8.30;;;;;;;3.03;73.48;100419.53;5039166;28;20222;-82
2021/01/03 07:52:35;;;;;;;8.33;7.53;;;;;;;3.04;73.23;100412.69;5038404;28;20719;-82
2021/01/03 07:55:01;;;;;;;9.27;8.27;;;;;;;3.03;73.14;100416.94;5037919;28;20308;-80
2021/01/03 07:57:27;;;;;;;9.23;8.37;;;;;;;3.06;73.61;100411.84;5038296;28;20297;-83
2021/01/03 07:59:54;;;;;;;9.27;8.47;;;;;;;3.07;73.39;100417.84;5038060;28;20256;-81
2021/01/03 08:02:23;;;;;;;9.70;8.70;;;;;;;3.06;73.08;100416.16;5039115;28;20276;-83
2021/01/03 08:04:53;;;;;;;10.37;9.37;;;;;;;3.09;73.33;100418.75;5033165;28;20199;-82
2021/01/03 08:07:19;;;;;;;9.17;8.33;;;;;;;3.09;73.64;100427.38;5037072;28;20212;-83
2021/01/03 08:09:45;;;;;;;9.43;8.53;;;;;;;3.04;74.11;100428.16;5035686;28;20218;-83
2021/01/03 08:12:19;;;;;;;10.80;8.77;;;;;;;3.08;73.79;100423.03;5043137;28;20202;-82
2021/01/03 08:14:47;;;;;;;10.97;9.90;;;;;;;3.11;73.42;100419.63;5044907;28;20601;-83
2021/01/03 08:17:19;;;;;;;11.07;9.97;;;;;;;3.08;73.61;100422.19;5045575;28;20198;-83
2021/01/03 08:19:45;;;;;;;10.97;9.87;;;;;;;3.04;73.67;100421.28;5046147;28;20825;-83
2021/01/03 08:22:12;;;;;;;10.43;9.07;;;;;;;3.08;73.59;100422.19;5045199;28;20199;-83
2021/01/03 08:24:38;;;;;;;10.37;9.20;;;;;;;3.06;74.38;100417.00;5045999;28;20210;-83
2021/01/03 08:27:13;;;;;;;10.37;9.20;;;;;;;3.09;74.14;100424.78;5046945;28;20217;-83
2021/01/03 08:29:42;;;;;;;11.60;10.40;;;;;;;3.10;74.09;100423.06;5048762;28;20232;-83
2021/01/03 08:32:11;;;;;;;9.97;8.97;;;;;;;3.12;74.60;100424.81;5044517;28;20195;-81
2021/01/03 08:34:39;;;;;;;14.03;9.53;;;;;;;3.10;74.13;100421.34;5046965;28;20257;-82
2021/01/03 08:37:14;;;;;;;11.63;10.07;;;;;;;3.13;74.35;100423.09;5045868;28;20198;-82
2021/01/03 08:39:40;;;;;;;11.63;10.40;;;;;;;3.12;75.02;100416.22;5046219;28;20221;-83
2021/01/03 08:42:11;;;;;;;11.87;10.67;;;;;;;3.14;74.77;100423.09;5050492;28;20244;-83
2021/01/03 08:44:41;;;;;;;12.83;10.23;;;;;;;3.16;74.54;100421.41;5045789;28;20218;-82
2021/01/03 08:47:09;;;;;;;10.83;9.53;;;;;;;3.18;75.07;100426.59;5053229;28;20201;-80
2021/01/03 08:49:35;;;;;;;12.13;10.83;;;;;;;3.20;74.88;100427.47;5047674;28;20248;-83
2021/01/03 08:52:13;;;;;;;12.77;10.37;;;;;;;3.20;75.25;100424.91;5049709;28;20194;-82
2021/01/03 08:54:40;;;;;;;12.17;10.93;;;;;;;3.21;75.10;100426.63;5044640;28;20236;-83
2021/01/03 08:57:06;;;;;;;14.23;11.17;;;;;;;3.18;75.64;100424.88;5048688;28;20206;-82
2021/01/03 08:59:33;;;;;;;11.80;10.63;;;;;;;3.14;76.32;100428.25;5043881;28;20221;-82
2021/01/03 09:01:59;;;;;;;14.30;12.07;;;;;;;3.15;76.05;100422.28;5048060;28;20194;-83
2021/01/03 09:04:25;;;;;;;13.40;11.97;;;;;;;3.12;76.30;100429.97;5046409;28;20229;-84
2021/01/03 09:06:53;;;;;;;18.83;12.50;;;;;;;3.13;76.62;100425.66;5046321;28;20201;-83
2021/01/03 09:09:22;;;;;;;13.83;12.17;;;;;;;3.15;77.46;100427.44;5043306;28;20276;-82
2021/01/03 09:11:52;;;;;;;18.07;12.03;;;;;;;3.15;77.06;100436.88;5043665;28;20197;-81
2021/01/03 09:14:26;;;;;;;17.23;12.77;;;;;;;3.14;77.53;100437.72;5043179;28;20229;-83
2021/01/03 09:16:55;;;;;;;15.57;12.93;;;;;;;3.09;77.04;100437.69;5044596;28;20206;-83
2021/01/03 09:19:25;;;;;;;13.83;12.33;;;;;;;3.07;77.71;100441.06;5038086;28;20234;-82
2021/01/03 09:21:54;;;;;;;18.23;13.30;;;;;;;3.09;77.95;100440.25;5038870;28;20198;-82
2021/01/03 09:24:23;;;;;;;17.60;13.47;;;;;;;3.04;78.10;100439.34;5035358;28;20198;-85
2021/01/03 09:26:51;;;;;;;19.13;14.30;;;;;;;3.04;78.04;100448.78;5039530;28;20206;-82
2021/01/03 09:29:23;;;;;;;19.07;12.70;;;;;;;3.03;78.65;100441.88;5038337;28;20223;-80
2021/01/03 09:32:03;;;;;;;17.10;12.90;;;;;;;3.04;78.71;100444.50;5040023;28;20206;-83
2021/01/03 09:34:43;;;;;;;20.70;13.13;;;;;;;3.02;79.11;100446.19;5034752;28;20219;-81
2021/01/03 09:37:18;;;;;;;16.37;13.47;;;;;;;3.00;78.77;100447.03;5036499;28;20206;-83
2021/01/03 09:39:59;;;;;;;18.07;13.30;;;;;;;2.98;78.86;100447.00;5038616;28;20733;-83
2021/01/03 09:42:39;;;;;;;19.63;13.83;;;;;;;2.95;79.37;100431.47;5044465;28;20197;-81
2021/01/03 09:45:18;;;;;;;19.13;13.73;;;;;;;2.91;79.86;100438.31;5040719;28;20205;-82
2021/01/03 09:47:47;;;;;;;19.90;12.83;;;;;;;2.93;80.48;100444.38;5040450;28;20205;-84
2021/01/03 09:50:20;;;;;;;24.13;14.90;;;;;;;2.95;80.60;100439.22;5036339;28;20224;-85
2021/01/03 09:52:52;;;;;;;18.97;13.90;;;;;;;3.00;80.02;100441.88;5034631;28;20672;-84
2021/01/03 09:55:22;;;;;;;16.57;12.53;;;;;;;3.01;80.58;100443.59;5036319;28;20280;-82
2021/01/03 09:57:58;;;;;;;16.43;13.30;;;;;;;3.04;80.32;100441.06;5038823;28;20225;-83
2021/01/03 10:00:45;;;;;;;18.63;14.10;;;;;;;3.09;80.10;100432.53;5040199;28;20265;-83
2021/01/03 10:03:17;;;;;;;14.57;12.17;;;;;;;3.10;79.71;100429.09;5042050;28;20236;-84
2021/01/03 10:05:43;;;;;;;17.90;13.43;;;;;;;3.09;80.10;100429.94;5047841;28;20205;-86
2021/01/03 10:08:16;;;;;;;14.63;12.13;;;;;;;3.07;79.96;100433.34;5053586;28;20209;-84
2021/01/03 10:10:45;;;;;;;19.23;16.75;;;;;;;3.10;80.10;100425.66;5049614;28;20443;-83
2021/01/03 10:13:14;;;;;;;17.23;12.67;;;;;;;3.15;80.00;100419.69;5043979;28;20285;-84
2021/01/03 10:15:40;;;;;;;16.80;11.53;;;;;;;3.14;79.52;100422.25;5043465;28;20230;-85
2021/01/03 10:18:09;;;;;;;17.47;13.83;;;;;;;3.11;80.08;100414.47;5043244;28;20194;-85
2021/01/03 10:20:42;;;;;;;17.33;12.50;;;;;;;3.05;80.00;100422.13;5038226;28;20213;-84
2021/01/03 10:23:12;;;;;;;14.00;12.20;;;;;;;3.01;80.56;100417.78;5037806;28;20686;-85
2021/01/03 10:25:38;;;;;;;13.13;11.03;;;;;;;2.91;80.59;100417.69;5039169;28;20199;-84
2021/01/03 10:28:07;;;;;;;14.03;12.00;;;;;;;2.85;81.32;100415.03;5039583;28;20206;-83
2021/01/03 10:30:34;;;;;;;14.20;12.63;;;;;;;2.77;81.61;100408.91;5037015;28;20206;-83
2021/01/03 10:33:00;;;;;;;16.23;11.83;;;;;;;2.78;81.66;100414.09;5040398;28;20259;-83
2021/01/03 10:35:46;;;;;;;23.43;11.13;;;;;;;2.78;81.57;100403.78;5040283;28;20222;-83
2021/01/03 10:38:15;;;;;;;14.07;10.97;;;;;;;2.78;81.75;100406.38;5039229;28;20267;-83
2021/01/03 10:40:41;;;;;;;12.00;10.37;;;;;;;2.77;81.45;100407.22;5039485;28;20194;-83
2021/01/03 10:43:06;;;;;;;13.30;10.47;;;;;;;2.78;81.81;100397.78;5038347;28;20205;-84
2021/01/03 10:45:33;;;;;;;12.93;10.47;;;;;;;2.82;81.54;100393.53;5039359;28;20226;-83
2021/01/03 10:48:00;;;;;;;10.77;9.67;;;;;;;2.83;81.67;100387.50;5037676;28;20231;-80
2021/01/03 10:50:26;;;;;;;10.63;9.10;;;;;;;2.82;81.71;100394.38;5038501;28;20289;-83
2021/01/03 10:52:52;;;;;;;13.98;12.50;;;;;;;2.81;81.59;100392.66;5039140;28;20982;-83
2021/01/03 10:55:20;;;;;;;11.80;10.43;;;;;;;2.82;81.16;100386.66;5036878;28;20320;-84
2021/01/03 10:57:46;;;;;;;10.90;9.67;;;;;;;2.84;80.74;100389.25;5039506;28;20206;-84
2021/01/03 11:00:15;;;;;;;12.98;10.18;;;;;;;2.83;80.97;100382.34;4690310;28;10000075;-84
2021/01/03 11:02:41;;;;;;;13.85;11.82;;;;;;;2.83;81.13;100379.78;5034515;28;20803;-84
2021/01/03 11:05:09;;;;;;;10.73;9.57;;;;;;;2.86;81.81;100380.69;5031874;28;20206;-84
2021/01/03 11:07:35;;;;;;;12.50;11.30;;;;;;;2.89;80.96;100380.69;5034528;28;20515;-83
2021/01/03 11:10:01;;;;;;;11.80;10.60;;;;;;;2.98;81.15;100375.66;5036047;28;20441;-84
2021/01/03 11:12:27;;;;;;;11.90;9.90;;;;;;;2.94;81.20;100370.47;5038581;28;20202;-85
2021/01/03 11:14:53;;;;;;;9.47;8.27;;;;;;;2.87;80.96;100369.50;5037022;28;20338;-83
2021/01/03 11:17:19;;;;;;;10.13;8.63;;;;;;;2.84;81.31;100358.31;5039384;28;20533;-84
2021/01/03 11:19:45;;;;;;;12.23;9.13;;;;;;;2.82;81.44;100360.03;5031606;28;20704;-83
2021/01/03 11:22:14;;;;;;;11.00;9.20;;;;;;;2.80;81.89;100353.97;5041151;28;20207;-83
2021/01/03 11:24:41;;;;;;;9.87;8.97;;;;;;;2.75;81.27;100351.34;5037693;28;20212;-84
2021/01/03 11:27:08;;;;;;;10.13;8.07;;;;;;;2.69;81.54;100353.84;5036843;28;20218;-84
2021/01/03 11:29:35;;;;;;;9.43;8.03;;;;;;;2.70;81.59;100348.72;5042025;28;20234;-83
2021/01/03 11:32:01;;;;;;;10.20;8.50;;;;;;;2.67;82.03;100338.34;5035870;28;20699;-83
2021/01/03 11:34:29;;;;;;;9.50;8.57;;;;;;;2.68;81.80;100341.81;5034932;28;20218;-83
2021/01/03 11:36:58;;;;;;;11.33;9.10;;;;;;;2.50;82.65;100342.47;5036401;28;20660;-83
2021/01/03 11:39:28;;;;;;;13.33;10.27;;;;;;;2.49;82.90;100335.56;5033618;28;20219;-84
2021/01/03 11:41:55;;;;;;;10.07;8.93;;;;;;;2.49;82.64;100340.72;5036178;28;20568;-84
2021/01/03 11:44:23;;;;;;;10.73;8.73;;;;;;;2.49;83.10;100339.00;5035177;28;20260;-83